Breckenridge, Colorado
Current Conditions -  °F | °C
As of 9:15 AM on Sunday 23 Nov 2014 (Local Time) from KCCU Reporting Station
Overcast Overcast  
Wind Chill: -3°   Ceiling: 400
Heat Index: 14°   Visibility: NA
Dew Point:   Wind: 17mph
Humidity: 79%   Direction: 280°W
Pressure: 29.77"   Gusts: 28mph
Location:  39.48°N, 106.04°W
Report Text: KCCU 231615Z AUTO 28015G24KT BKN004 OVC009 M10/M13 A2977 RMK AO2 PWINO
Loading
Personal Weather Stations






























Interactive Weather Map New forecast layout! Learn more

10-Day Weather Forecast

Advertisements
Track Severe Weather on mobile